Time;durP1;ratioP1;P1;durP2;ratioP2;P2;SDS_P1;SDS_P2;PMS_P1;PMS_P2;Temp;Humidity;BMP_temperature;BMP_pressure;BME280_temperature;BME280_humidity;BME280_pressure;Samples;Min_cycle;Max_cycle;Signal;HPM_P1;HPM_P2
2023/08/21 00:01:52;;;;;;;4.80;4.40;;;24.00;69.00;;;24.67;49.44;95276.34;5070251;28;20458;-57
2023/08/21 00:04:19;;;;;;;11.83;5.33;;;24.00;69.30;;;24.66;48.96;95277.41;5073617;28;20489;-55
2023/08/21 00:06:47;;;;;;;7.87;5.00;;;24.00;69.60;;;24.65;48.89;95278.44;5076574;28;20503;-56
2023/08/21 00:09:14;;;;;;;9.20;5.10;;;24.00;69.60;;;24.63;48.92;95283.22;5069891;28;20466;-59
2023/08/21 00:11:41;;;;;;;6.27;5.67;;;24.00;69.50;;;24.60;49.41;95289.03;5068071;28;20490;-56
2023/08/21 00:14:09;;;;;;;6.00;5.10;;;24.00;69.90;;;24.58;49.16;95285.72;5073218;28;20965;-57
2023/08/21 00:16:36;;;;;;;9.20;5.37;;;23.90;69.90;;;24.52;49.53;95284.72;5069076;28;20876;-55
2023/08/21 00:19:05;;;;;;;11.10;5.00;;;23.90;69.70;;;24.52;49.23;95275.81;5067912;28;20466;-56
2023/08/21 00:21:32;;;;;;;5.50;4.87;;;23.90;69.70;;;24.50;49.74;95276.03;5064928;28;20927;-54
2023/08/21 00:23:59;;;;;;;7.73;5.43;;;23.90;70.30;;;24.49;49.46;95277.09;5069839;28;20469;-56
2023/08/21 00:26:26;;;;;;;6.73;5.40;;;23.80;70.60;;;24.46;49.29;95274.81;5072453;28;20492;-58
2023/08/21 00:28:54;;;;;;;5.40;4.80;;;23.80;70.20;;;24.45;49.83;95277.72;5074889;28;20477;-57
2023/08/21 00:31:21;;;;;;;5.97;5.47;;;23.80;70.60;;;24.43;50.12;95272.56;5068602;28;20543;-58
2023/08/21 00:33:48;;;;;;;7.33;5.30;;;23.80;70.40;;;24.41;49.26;95277.31;5079097;28;20502;-57
2023/08/21 00:36:17;;;;;;;9.20;4.63;;;23.80;70.40;;;24.40;49.47;95289.13;5072182;28;20465;-58
2023/08/21 00:38:44;;;;;;;10.53;5.10;;;23.80;70.70;;;24.40;50.21;95290.97;5077735;28;20969;-56
2023/08/21 00:41:11;;;;;;;8.37;5.47;;;23.80;70.80;;;24.38;49.80;95285.00;5070942;28;20959;-56
2023/08/21 00:43:38;;;;;;;6.63;5.83;;;23.70;71.20;;;24.36;50.70;95287.09;5078831;28;20485;-59
2023/08/21 00:46:06;;;;;;;5.67;5.10;;;23.70;71.40;;;24.34;50.34;95284.63;5071380;28;20446;-58
2023/08/21 00:48:33;;;;;;;4.33;4.13;;;23.70;71.30;;;24.32;49.89;95289.38;5078564;28;20487;-56
2023/08/21 00:51:00;;;;;;;5.87;5.30;;;23.70;71.30;;;24.30;50.50;95286.09;5071070;28;20462;-58
2023/08/21 00:53:29;;;;;;;10.10;5.17;;;23.70;71.40;;;24.29;50.53;95287.09;5075067;28;20497;-57
2023/08/21 00:55:56;;;;;;;11.80;5.60;;;23.70;71.50;;;24.27;50.67;95281.94;5069422;28;20450;-56
2023/08/21 00:58:23;;;;;;;7.03;5.33;;;23.60;71.70;;;24.25;50.66;95289.41;5073685;28;20470;-58
2023/08/21 01:00:51;;;;;;;5.67;4.77;;;23.60;71.80;;;24.25;50.46;95285.91;5074145;28;20975;-58
2023/08/21 01:03:19;;;;;;;5.03;4.63;;;23.60;72.20;;;24.22;51.10;95292.53;5075452;28;20537;-57
2023/08/21 01:05:46;;;;;;;5.53;5.03;;;23.60;73.20;;;24.20;50.80;95297.31;5079521;28;20571;-56
2023/08/21 01:08:20;;;;;;;6.77;5.10;;;23.60;72.70;;;24.19;50.81;95292.16;5069917;28;20551;-58
2023/08/21 01:10:53;;;;;;;7.07;5.77;;;23.60;72.50;;;24.16;51.54;95293.38;5073412;28;20509;-58
2023/08/21 01:13:34;;;;;;;8.13;5.53;;;23.50;72.40;;;24.13;51.47;95288.44;5076025;28;20521;-58
2023/08/21 01:16:01;;;;;;;9.10;5.63;;;23.50;72.60;;;24.12;50.71;95298.38;5073454;28;20445;-58
2023/08/21 01:18:28;;;;;;;11.77;5.90;;;23.50;72.60;;;24.10;51.44;95286.19;5076016;28;20482;-58
2023/08/21 01:20:55;;;;;;;6.33;5.00;;;23.50;72.70;;;24.08;51.02;95296.34;5068886;28;20504;-57
2023/08/21 01:23:37;;;;;;;5.50;5.00;;;23.50;72.90;;;24.07;52.11;95289.31;5072032;28;20482;-56
2023/08/21 01:26:04;;;;;;;8.17;5.57;;;23.40;73.20;;;24.05;51.79;95302.13;5073164;28;20447;-55
2023/08/21 01:28:32;;;;;;;7.23;4.93;;;23.40;73.30;;;24.02;51.46;95307.94;5072368;28;20474;-55
2023/08/21 01:31:04;;;;;;;8.60;5.50;;;23.40;73.60;;;23.99;51.67;95299.25;5077109;28;20450;-57
2023/08/21 01:33:31;;;;;;;7.67;5.60;;;23.40;74.00;;;23.97;52.12;95297.81;5071711;28;20501;-59
2023/08/21 01:35:59;;;;;;;6.17;5.67;;;23.40;74.20;;;23.93;52.09;95305.47;5072896;28;20469;-57
2023/08/21 01:38:27;;;;;;;19.20;5.30;;;23.30;74.10;;;23.92;51.84;95303.84;5071595;28;20797;-59
2023/08/21 01:40:56;;;;;;;5.80;5.30;;;23.30;74.40;;;23.89;51.74;95298.03;5076584;28;20552;-55
2023/08/21 01:43:23;;;;;;;8.67;6.10;;;23.30;74.50;;;23.88;52.73;95302.59;5070494;28;20490;-55
2023/08/21 01:45:51;;;;;;;7.13;6.30;;;23.20;74.60;;;23.86;52.85;95299.31;5069670;28;20508;-58
2023/08/21 01:48:18;;;;;;;14.37;7.03;;;23.20;74.80;;;23.85;52.15;95300.34;5076552;28;20475;-58
2023/08/21 01:50:45;;;;;;;13.83;7.60;;;23.20;75.00;;;23.83;52.60;95301.53;5070262;28;20450;-62
2023/08/21 01:53:12;;;;;;;9.60;7.20;;;23.20;75.10;;;23.80;52.28;95295.56;5075435;28;20503;-55
2023/08/21 01:55:40;;;;;;;13.13;6.73;;;23.20;75.30;;;23.76;52.66;95288.97;5071712;28;20454;-57
2023/08/21 01:58:08;;;;;;;10.30;6.50;;;23.10;75.00;;;23.72;52.83;95301.19;5074223;28;20489;-56
2023/08/21 02:00:35;;;;;;;16.90;7.10;;;23.10;75.20;;;23.69;52.74;95288.19;5072030;28;20539;-57
2023/08/21 02:03:03;;;;;;;10.43;6.97;;;23.10;75.20;;;23.67;52.56;95294.78;5070279;28;20474;-55
2023/08/21 02:05:30;;;;;;;11.17;8.00;;;23.10;75.80;;;23.65;53.05;95297.69;5077001;28;21006;-58
2023/08/21 02:07:57;;;;;;;11.63;8.30;;;23.00;75.80;;;23.62;53.17;95298.09;5070141;28;20482;-58
2023/08/21 02:10:25;;;;;;;24.83;8.80;;;23.00;75.90;;;23.58;52.73;95297.72;5070264;28;20513;-56
2023/08/21 02:12:53;;;;;;;13.13;8.27;;;23.00;76.10;;;23.56;53.62;95298.94;5076022;28;20497;-57
2023/08/21 02:15:23;;;;;;;11.00;7.40;;;23.00;76.50;;;23.53;52.92;95300.22;5072630;28;20533;-55
2023/08/21 02:17:50;;;;;;;8.60;7.00;;;23.00;76.50;;;23.51;53.40;95301.44;5074270;28;20897;-58
2023/08/21 02:20:17;;;;;;;12.53;7.57;;;22.90;76.40;;;23.50;53.06;95305.16;5068472;28;20450;-56
2023/08/21 02:22:44;;;;;;;20.90;7.23;;;22.90;76.70;;;23.49;53.50;95307.03;5071496;28;20450;-55
2023/08/21 02:25:12;;;;;;;13.23;7.50;;;22.90;77.00;;;23.47;54.00;95298.38;5070526;28;20470;-56
2023/08/21 02:27:39;;;;;;;9.93;7.00;;;22.90;77.20;;;23.45;53.45;95297.72;5071856;28;20450;-57
2023/08/21 02:30:08;;;;;;;8.73;6.77;;;22.80;77.20;;;23.44;53.47;95301.47;5074387;28;20472;-57
2023/08/21 02:32:38;;;;;;;17.70;8.00;;;22.80;77.50;;;23.41;53.39;95291.97;5070507;28;20582;-58
2023/08/21 02:35:06;;;;;;;9.60;6.43;;;22.80;77.70;;;23.39;53.55;95290.50;5074217;28;20453;-56
2023/08/21 02:37:34;;;;;;;8.27;7.30;;;22.80;77.90;;;23.38;54.38;95296.94;5072396;28;20453;-57
2023/08/21 02:40:01;;;;;;;7.50;6.00;;;22.80;78.00;;;23.35;53.52;95298.16;5072866;28;20470;-58
2023/08/21 02:42:28;;;;;;;16.30;7.37;;;22.80;77.90;;;23.32;53.68;95293.22;5071542;28;20462;-58
2023/08/21 02:44:55;;;;;;;10.03;6.50;;;22.70;78.20;;;23.31;54.53;95296.13;5071914;28;20454;-56
2023/08/21 02:47:23;;;;;;;8.07;7.27;;;22.70;78.40;;;23.27;54.42;95299.22;5073882;28;20455;-57
2023/08/21 02:49:51;;;;;;;8.87;7.30;;;22.70;78.70;;;23.22;54.51;95293.66;5070480;28;20592;-55
2023/08/21 02:52:19;;;;;;;10.40;6.30;;;22.60;78.60;;;23.18;54.52;95296.97;5070150;28;20455;-56
2023/08/21 02:54:46;;;;;;;10.93;6.70;;;22.60;78.80;;;23.13;54.51;95294.91;5072927;28;20932;-56
2023/08/21 02:57:13;;;;;;;6.57;5.87;;;22.60;78.90;;;23.10;54.84;95300.69;5070309;28;20453;-56
2023/08/21 02:59:40;;;;;;;11.43;6.33;;;22.60;79.10;;;23.06;54.63;95300.22;5076192;28;20466;-56
2023/08/21 03:02:08;;;;;;;10.03;5.70;;;22.50;79.00;;;23.02;54.75;95306.22;5069014;28;20446;-58
2023/08/21 03:04:35;;;;;;;6.60;6.00;;;22.50;79.10;;;22.99;54.50;95303.94;5075180;28;20535;-57
2023/08/21 03:07:04;;;;;;;6.37;5.73;;;22.40;79.40;;;22.95;54.48;95305.41;5075436;28;20453;-58
2023/08/21 03:09:31;;;;;;;5.70;5.20;;;22.40;79.40;;;22.92;54.53;95312.00;5069468;28;20462;-55
2023/08/21 03:11:58;;;;;;;7.03;6.23;;;22.40;79.60;;;22.90;54.62;95306.84;5075198;28;20454;-56
2023/08/21 03:14:27;;;;;;;15.57;5.10;;;22.30;79.50;;;22.89;55.06;95310.53;5072054;28;20489;-56
2023/08/21 03:16:54;;;;;;;6.90;6.30;;;22.30;79.60;;;22.90;55.00;95320.25;5066664;28;20461;-56
2023/08/21 03:19:21;;;;;;;6.67;5.83;;;22.30;80.00;;;22.91;55.11;95319.22;5071092;28;20831;-55
2023/08/21 03:21:49;;;;;;;6.67;5.97;;;22.30;80.00;;;22.91;54.39;95318.38;5066872;28;20477;-56
2023/08/21 03:24:17;;;;;;;7.17;6.37;;;22.30;79.80;;;22.90;54.28;95320.25;5068717;28;20477;-58
2023/08/21 03:26:45;;;;;;;9.10;6.70;;;22.30;79.90;;;22.91;54.85;95321.06;5070513;28;20516;-56
2023/08/21 03:29:12;;;;;;;5.63;5.13;;;22.30;80.10;;;22.92;54.84;95326.22;5073256;28;20482;-57
2023/08/21 03:31:39;;;;;;;6.50;5.90;;;22.30;80.10;;;22.89;54.99;95321.28;5069556;28;20455;-59
2023/08/21 03:34:06;;;;;;;6.53;5.80;;;22.30;80.30;;;22.85;54.59;95325.41;5073359;28;20608;-55
2023/08/21 03:36:34;;;;;;;9.23;7.00;;;22.30;80.30;;;22.82;54.78;95322.28;5068562;28;20455;-57
2023/08/21 03:39:01;;;;;;;8.37;6.60;;;22.20;80.80;;;22.78;54.99;95315.72;5075153;28;20477;-57
2023/08/21 03:41:30;;;;;;;8.27;6.90;;;22.20;80.60;;;22.73;54.75;95316.31;5067698;28;20874;-56
2023/08/21 03:43:57;;;;;;;8.03;5.77;;;22.20;80.80;;;22.69;55.20;95321.25;5075923;28;20982;-58
2023/08/21 03:46:24;;;;;;;10.23;6.23;;;22.10;80.50;;;22.65;55.63;95325.38;5067572;28;20457;-57
2023/08/21 03:48:52;;;;;;;13.03;6.30;;;22.10;81.30;;;22.63;55.37;95310.53;5071043;28;20471;-57
2023/08/21 03:51:19;;;;;;;9.10;6.53;;;22.10;81.20;;;22.61;55.63;95313.41;5065869;28;20515;-54
2023/08/21 03:53:46;;;;;;;8.67;6.90;;;22.00;81.30;;;22.61;55.28;95317.97;5069711;28;20494;-55
2023/08/21 03:56:14;;;;;;;14.57;5.70;;;22.00;81.80;;;22.61;55.29;95317.97;5072642;28;20458;-59
2023/08/21 03:58:42;;;;;;;13.23;6.93;;;22.00;81.90;;;22.59;55.12;95314.63;5069333;28;20493;-57
2023/08/21 04:01:10;;;;;;;6.27;5.67;;;22.00;81.90;;;22.53;55.60;95319.78;5073914;28;20561;-57
2023/08/21 04:03:37;;;;;;;14.57;6.60;;;22.00;81.80;;;22.49;55.16;95321.22;5071169;28;20551;-56
2023/08/21 04:06:05;;;;;;;13.43;5.90;;;21.90;81.80;;;22.50;56.03;95322.88;5077196;28;20965;-54
2023/08/21 04:08:32;;;;;;;7.03;6.43;;;21.90;82.30;;;22.50;55.90;95320.19;5078323;28;20463;-56
2023/08/21 04:11:00;;;;;;;25.20;7.03;;;21.90;82.50;;;22.52;55.86;95326.16;5073837;28;20446;-57
2023/08/21 04:13:28;;;;;;;16.57;7.40;;;21.90;82.60;;;22.54;55.75;95331.34;5077132;28;20567;-56
2023/08/21 04:15:56;;;;;;;8.50;7.17;;;22.00;83.10;;;22.56;55.94;95338.16;5072281;28;20912;-57
2023/08/21 04:18:24;;;;;;;11.10;7.90;;;21.90;83.10;;;22.61;56.10;95331.38;5072024;28;20466;-55
2023/08/21 04:20:51;;;;;;;13.03;6.70;;;22.00;83.40;;;22.65;56.14;95338.81;5076503;28;20443;-56
2023/08/21 04:23:18;;;;;;;9.90;7.60;;;22.00;83.40;;;22.70;56.34;95336.31;5072224;28;20532;-55
2023/08/21 04:25:45;;;;;;;8.90;6.53;;;22.10;83.70;;;22.77;56.21;95332.81;5074552;28;20451;-56
2023/08/21 04:28:13;;;;;;;14.90;7.60;;;22.20;83.60;;;22.84;56.39;95333.66;5071372;28;20482;-57
2023/08/21 04:30:42;;;;;;;7.43;5.97;;;22.20;83.80;;;22.89;55.59;95332.00;5077931;28;20445;-57
2023/08/21 04:33:10;;;;;;;7.47;6.50;;;22.20;83.30;;;22.93;55.21;95337.81;5070874;28;20585;-56
2023/08/21 04:35:39;;;;;;;12.23;6.87;;;22.30;83.10;;;22.96;55.65;95345.44;5074986;28;20477;-56
2023/08/21 04:38:07;;;;;;;13.70;6.20;;;22.40;83.20;;;23.00;55.25;95340.47;5075995;28;20505;-55
2023/08/21 04:40:34;;;;;;;20.83;5.83;;;22.40;83.10;;;23.02;55.86;95347.31;5073333;28;20890;-57
2023/08/21 04:43:01;;;;;;;10.60;7.00;;;22.40;82.90;;;23.05;55.26;95354.09;5076357;28;20859;-57
2023/08/21 04:45:28;;;;;;;10.17;5.97;;;22.40;82.80;;;23.05;55.73;95354.94;5071437;28;20536;-57
2023/08/21 04:47:56;;;;;;;11.20;5.80;;;22.50;82.50;;;23.07;54.86;95346.69;5073289;28;20481;-58
2023/08/21 04:50:24;;;;;;;8.00;6.50;;;22.50;82.50;;;23.10;55.41;95354.34;5075928;28;20524;-57
2023/08/21 04:52:51;;;;;;;12.40;5.87;;;22.50;82.40;;;23.13;54.95;95353.09;5071664;28;20486;-56
2023/08/21 04:55:19;;;;;;;8.20;6.87;;;22.50;82.60;;;23.13;55.23;95358.47;5077663;28;20480;-58
2023/08/21 04:57:46;;;;;;;10.80;6.30;;;22.50;82.50;;;23.14;55.08;95349.38;5071815;28;20818;-58
2023/08/21 05:00:15;;;;;;;14.63;6.70;;;22.60;82.60;;;23.16;54.98;95361.59;5074608;28;20496;-56
2023/08/21 05:02:43;;;;;;;7.63;6.50;;;22.60;82.60;;;23.19;55.21;95363.84;5073102;28;20892;-58
2023/08/21 05:05:10;;;;;;;10.97;6.97;;;22.60;82.60;;;23.23;55.07;95359.69;5076757;28;20462;-56
2023/08/21 05:07:38;;;;;;;7.37;5.83;;;22.60;82.60;;;23.27;55.15;95365.50;5072313;28;20450;-56
2023/08/21 05:10:07;;;;;;;13.80;6.77;;;22.60;82.60;;;23.31;54.69;95364.03;5070529;28;20455;-55
2023/08/21 05:12:35;;;;;;;7.70;6.53;;;22.70;82.70;;;23.33;54.73;95370.03;5075674;28;20454;-58
2023/08/21 05:15:02;;;;;;;19.13;7.83;;;22.70;82.00;;;23.35;54.98;95365.28;5073902;28;20517;-56
2023/08/21 05:17:30;;;;;;;15.10;8.83;;;22.70;81.80;;;23.40;54.38;95367.34;5075474;28;20548;-56
2023/08/21 05:19:58;;;;;;;10.13;7.30;;;22.80;81.70;;;23.46;54.62;95374.56;5072441;28;20461;-54
2023/08/21 05:22:25;;;;;;;11.00;6.10;;;22.90;81.60;;;23.55;53.97;95375.19;5071777;28;20464;-55
2023/08/21 05:24:53;;;;;;;13.90;6.80;;;22.90;81.30;;;23.63;53.98;95373.09;5072388;28;20852;-60
2023/08/21 05:27:21;;;;;;;7.67;6.60;;;23.00;81.10;;;23.71;54.03;95377.41;5076049;28;20461;-55
2023/08/21 05:29:49;;;;;;;7.60;6.77;;;23.10;80.90;;;23.78;53.39;95372.88;5068237;28;20535;-57
2023/08/21 05:32:16;;;;;;;8.57;7.20;;;23.10;80.70;;;23.89;53.50;95368.75;5073738;28;20511;-55
2023/08/21 05:34:44;;;;;;;13.60;6.10;;;23.30;80.70;;;24.01;53.23;95370.78;5071435;28;20947;-57
2023/08/21 05:37:11;;;;;;;13.93;7.30;;;23.30;80.50;;;24.15;52.87;95367.84;5075179;28;20970;-58
2023/08/21 05:39:39;;;;;;;15.33;7.30;;;23.50;80.20;;;24.31;52.67;95371.91;5071972;28;20474;-56
2023/08/21 05:42:07;;;;;;;11.00;6.43;;;23.60;79.80;;;24.50;53.07;95367.47;5074949;28;20472;-61
2023/08/21 05:44:35;;;;;;;21.67;14.73;;;23.80;79.50;;;24.70;52.81;95358.50;5071986;28;20471;-56
2023/08/21 05:47:02;;;;;;;18.53;7.70;;;24.00;79.20;;;24.90;52.36;95362.94;5075566;28;20466;-56
2023/08/21 05:49:29;;;;;;;12.87;7.27;;;24.20;78.60;;;25.10;51.68;95362.75;5071475;28;20470;-56
2023/08/21 05:51:58;;;;;;;15.47;6.90;;;24.40;78.00;;;25.28;51.41;95357.44;5074791;28;20493;-55
2023/08/21 05:54:26;;;;;;;13.07;7.50;;;24.50;77.20;;;25.45;50.65;95354.25;5071277;28;20502;-61
2023/08/21 05:56:53;;;;;;;15.53;6.13;;;24.70;76.90;;;25.68;50.54;95361.69;5075966;28;20462;-58
2023/08/21 05:59:31;;;;;;;9.80;7.17;;;24.80;76.90;;;25.92;50.03;95358.13;5075189;28;20546;-57
2023/08/21 06:01:58;;;;;;;17.30;7.80;;;25.10;76.50;;;26.17;50.06;95359.13;5068577;28;20442;-57
2023/08/21 06:04:26;;;;;;;10.80;6.50;;;25.30;75.90;;;26.41;49.84;95354.66;5074291;28;20473;-58
2023/08/21 06:06:54;;;;;;;12.43;6.47;;;25.60;75.30;;;26.67;49.39;95356.22;5074744;28;20946;-57
2023/08/21 06:09:21;;;;;;;15.60;6.50;;;25.80;74.50;;;26.91;48.65;95359.00;5073460;28;20534;-59
2023/08/21 06:11:48;;;;;;;21.23;7.10;;;26.10;73.50;;;27.14;48.15;95353.66;5074288;28;20541;-57
2023/08/21 06:14:15;;;;;;;19.37;7.23;;;26.30;73.00;;;27.40;47.63;95361.59;5072805;28;20911;-55
2023/08/21 06:16:45;;;;;;;8.70;5.57;;;26.60;72.20;;;27.65;47.50;95364.06;5070335;28;20442;-59
2023/08/21 06:19:12;;;;;;;10.40;5.93;;;26.80;71.40;;;27.89;46.92;95363.00;5074075;28;20503;-58
2023/08/21 06:21:39;;;;;;;13.57;7.17;;;27.00;70.80;;;28.15;46.24;95371.69;5068919;28;20430;-55
2023/08/21 06:24:07;;;;;;;15.30;6.60;;;27.30;70.20;;;28.38;45.60;95368.13;5070578;28;21171;-60
2023/08/21 06:26:34;;;;;;;13.00;6.73;;;27.50;69.30;;;28.62;45.98;95370.78;5069749;28;20460;-57
2023/08/21 06:29:01;;;;;;;8.93;6.10;;;27.80;68.60;;;28.86;44.70;95363.38;5075608;28;20474;-58
2023/08/21 06:31:28;;;;;;;28.87;6.50;;;28.00;67.60;;;29.11;45.08;95363.00;5068129;28;20450;-60
2023/08/21 06:33:57;;;;;;;8.30;6.50;;;28.30;67.60;;;29.36;44.18;95372.66;5075475;28;20493;-58
2023/08/21 06:36:24;;;;;;;19.93;7.47;;;28.50;66.90;;;29.58;43.66;95372.72;5069778;28;20462;-60
2023/08/21 06:38:51;;;;;;;11.63;6.27;;;28.70;66.20;;;29.84;43.32;95370.44;5075441;28;21174;-57
2023/08/21 06:41:19;;;;;;;11.40;7.80;;;28.90;65.50;;;30.08;43.53;95370.22;5069071;28;20457;-55
2023/08/21 06:43:46;;;;;;;15.50;6.90;;;29.20;64.80;;;30.30;42.74;95379.19;5072152;28;20896;-58
2023/08/21 06:46:14;;;;;;;5.77;5.33;;;29.40;63.80;;;30.52;42.09;95370.25;5073594;28;20230;-55
2023/08/21 06:48:41;;;;;;;6.93;5.83;;;29.60;63.10;;;30.75;42.01;95378.16;5070601;28;20469;-60
2023/08/21 06:51:10;;;;;;;15.27;5.97;;;29.80;62.30;;;30.94;41.66;95377.81;5074342;28;20291;-60
2023/08/21 06:53:37;;;;;;;7.50;5.80;;;30.00;62.00;;;31.12;40.93;95373.09;5069301;28;20228;-59
2023/08/21 06:56:05;;;;;;;10.57;4.70;;;30.20;61.50;;;31.33;41.01;95385.00;5071283;28;20207;-63
2023/08/21 06:58:32;;;;;;;9.00;5.17;;;30.40;61.00;;;31.55;40.40;95372.13;5073499;28;20227;-59
2023/08/21 07:01:01;;;;;;;5.97;5.37;;;30.60;60.50;;;31.79;40.66;95377.19;5073046;28;20261;-55
2023/08/21 07:03:28;;;;;;;5.90;5.30;;;30.80;60.00;;;32.02;40.18;95375.97;5075398;28;20215;-58
2023/08/21 07:05:56;;;;;;;9.37;4.93;;;31.10;59.60;;;32.26;39.57;95376.44;5079463;28;20277;-58
2023/08/21 07:08:24;;;;;;;11.27;5.73;;;31.30;59.10;;;32.50;38.98;95378.69;5070768;28;20339;-56
2023/08/21 07:10:52;;;;;;;12.40;5.00;;;31.50;58.70;;;32.71;38.30;95371.47;5073803;28;20788;-59
2023/08/21 07:13:19;;;;;;;10.50;4.63;;;31.80;57.50;;;32.91;38.25;95369.88;5068885;28;20240;-59
2023/08/21 07:15:47;;;;;;;13.40;5.32;;;32.00;57.60;;;33.11;38.21;95369.06;5074490;28;20235;-58
2023/08/21 07:18:14;;;;;;;8.38;5.15;;;32.20;57.40;;;33.30;37.32;95372.16;5068520;28;20216;-55
2023/08/21 07:20:41;;;;;;;9.82;4.78;;;32.30;56.30;;;33.51;37.48;95370.22;5068935;28;20200;-55
2023/08/21 07:23:09;;;;;;;5.50;4.95;;;32.50;56.70;;;33.72;37.88;95362.91;5068706;28;20299;-56
2023/08/21 07:25:38;;;;;;;9.35;5.35;;;32.80;56.40;;;33.95;36.96;95370.50;5073314;28;20363;-59
2023/08/21 07:28:06;;;;;;;6.63;5.53;;;33.00;56.10;;;34.10;37.03;95364.19;5066875;28;20230;-57
2023/08/21 07:30:33;;;;;;;13.13;5.32;;;33.10;55.60;;;34.30;36.69;95368.81;5069537;28;20318;-58
2023/08/21 07:33:00;;;;;;;9.57;5.90;;;33.30;55.40;;;34.54;36.08;95367.34;5071497;28;20227;-57
2023/08/21 07:35:27;;;;;;;13.88;5.20;;;33.60;55.00;;;34.73;36.55;95364.78;5070969;28;20238;-58
2023/08/21 07:37:55;;;;;;;28.45;6.70;;;33.80;54.40;;;34.88;35.04;95362.00;5073036;28;20681;-60
2023/08/21 07:40:22;;;;;;;9.40;6.30;;;33.90;53.80;;;34.96;35.29;95369.59;5069901;28;20195;-57
2023/08/21 07:42:51;;;;;;;9.65;5.50;;;34.00;53.30;;;35.04;34.97;95361.91;5069210;28;20227;-59
2023/08/21 07:45:18;;;;;;;10.75;5.03;;;34.10;52.90;;;35.19;34.79;95361.81;5074808;28;20211;-55
2023/08/21 07:47:45;;;;;;;10.73;5.10;;;34.20;53.00;;;35.44;34.74;95354.53;5068175;28;20258;-60
2023/08/21 07:50:14;;;;;;;15.68;5.90;;;34.50;52.70;;;35.67;34.17;95359.25;5070804;28;20654;-60
2023/08/21 07:52:41;;;;;;;13.65;5.30;;;34.70;51.80;;;35.82;33.40;95362.97;5069134;28;20215;-58
2023/08/21 07:55:09;;;;;;;7.32;4.45;;;34.90;51.60;;;35.95;33.65;95356.84;5070304;28;20254;-59
2023/08/21 07:57:36;;;;;;;8.90;4.82;;;35.00;51.20;;;36.11;33.84;95360.22;5067790;28;20196;-56
2023/08/21 08:00:08;;;;;;;18.08;5.03;;;35.20;51.10;;;36.36;32.63;95367.38;5071728;28;20198;-59
2023/08/21 08:02:35;;;;;;;10.15;6.10;;;35.40;50.60;;;36.52;32.57;95359.78;5071064;28;20203;-59
2023/08/21 08:05:03;;;;;;;6.35;4.93;;;35.50;49.80;;;36.54;32.15;95354.00;5074019;28;20327;-59
2023/08/21 08:07:31;;;;;;;16.05;4.95;;;35.60;49.00;;;36.55;31.73;95350.97;5074293;28;20255;-56
2023/08/21 08:09:58;;;;;;;5.65;4.35;;;35.70;48.70;;;36.52;31.28;95346.09;5070925;28;20232;-56
2023/08/21 08:12:25;;;;;;;5.38;4.88;;;35.70;48.50;;;36.56;31.86;95349.03;5069651;28;20212;-56
2023/08/21 08:14:52;;;;;;;13.75;4.80;;;35.80;49.20;;;36.59;31.56;95348.47;5072757;28;20276;-60
2023/08/21 08:17:21;;;;;;;7.95;5.00;;;35.80;48.60;;;36.72;31.74;95341.44;5068657;28;20273;-60
2023/08/21 08:19:48;;;;;;;15.00;4.95;;;36.00;48.00;;;36.82;31.53;95346.00;5068219;28;20223;-60
2023/08/21 08:22:15;;;;;;;5.05;4.63;;;36.10;48.00;;;37.00;31.61;95338.88;5068318;28;20694;-56
2023/08/21 08:24:43;;;;;;;9.02;5.10;;;36.20;48.10;;;37.21;31.25;95342.13;5070417;28;20233;-58
2023/08/21 08:27:10;;;;;;;7.30;5.00;;;36.40;47.80;;;37.35;30.87;95336.72;5070653;28;20204;-57
2023/08/21 08:29:37;;;;;;;6.25;4.88;;;36.70;47.60;;;37.45;30.82;95337.38;5070687;28;20638;-60
2023/08/21 08:32:06;;;;;;;13.25;5.45;;;36.70;47.00;;;37.61;30.88;95332.44;5069005;28;20302;-56
2023/08/21 08:34:34;;;;;;;6.72;5.65;;;36.80;47.30;;;37.93;30.58;95332.75;5064596;28;20239;-56
2023/08/21 08:37:02;;;;;;;5.63;5.10;;;37.10;47.00;;;38.27;30.15;95331.56;5072985;28;20623;-59
2023/08/21 08:39:29;;;;;;;10.75;5.53;;;37.30;46.90;;;38.52;29.74;95324.75;5068320;28;20228;-60
2023/08/21 08:42:00;;;;;;;32.20;6.30;;;37.60;46.30;;;38.64;29.75;95324.22;5073030;28;20208;-56
2023/08/21 08:44:27;;;;;;;6.30;5.40;;;37.70;45.90;;;38.69;29.32;95326.88;5068945;28;20224;-59
2023/08/21 08:46:55;;;;;;;13.50;5.55;;;37.80;45.90;;;38.80;30.13;95324.72;5072154;28;20217;-56
2023/08/21 08:49:23;;;;;;;7.25;5.25;;;37.80;46.00;;;39.05;29.51;95326.06;5068047;28;20278;-59
2023/08/21 08:51:53;;;;;;;5.72;5.10;;;38.00;45.70;;;39.36;28.97;95325.38;5072324;28;20207;-59
2023/08/21 08:54:21;;;;;;;10.18;5.88;;;38.30;45.40;;;39.64;28.86;95319.75;5070725;28;20315;-59
2023/08/21 08:56:48;;;;;;;10.95;5.25;;;38.60;44.70;;;39.68;28.23;95320.72;5075322;28;20273;-60
2023/08/21 08:59:15;;;;;;;5.65;5.25;;;38.70;44.40;;;39.67;27.79;95317.19;5075922;28;20278;-58
2023/08/21 09:01:42;;;;;;;35.85;27.58;;;38.80;44.00;;;39.66;29.06;95309.22;5077796;28;20218;-58
2023/08/21 09:04:10;;;;;;;11.77;5.60;;;38.80;43.70;;;39.55;27.84;95312.22;5069452;28;20693;-59
2023/08/21 09:06:37;;;;;;;7.75;5.28;;;38.70;43.60;;;39.38;27.96;95312.94;5077648;28;20257;-57
2023/08/21 09:09:06;;;;;;;6.88;5.32;;;38.60;43.50;;;39.35;28.52;95312.72;5075091;28;20307;-58
2023/08/21 09:11:34;;;;;;;7.25;5.45;;;38.50;43.40;;;39.29;28.01;95302.97;5072427;28;20212;-58
2023/08/21 09:14:01;;;;;;;11.35;4.85;;;38.50;43.60;;;39.42;27.84;95311.16;5076342;28;20251;-57
2023/08/21 09:16:28;;;;;;;8.38;5.57;;;38.40;43.60;;;39.53;28.14;95306.25;5071278;28;20251;-60
2023/08/21 09:18:57;;;;;;;5.82;4.90;;;38.50;43.60;;;39.73;27.16;95306.84;5075544;28;20227;-57
2023/08/21 09:21:25;;;;;;;5.45;4.85;;;38.70;42.90;;;39.93;26.95;95300.78;5074650;28;20215;-59
2023/08/21 09:23:58;;;;;;;6.70;4.97;;;38.90;42.60;;;39.92;27.54;95303.84;5075255;28;20300;-60
2023/08/21 09:26:27;;;;;;;14.20;4.85;;;39.00;42.40;;;39.96;27.75;95299.34;5078090;28;20200;-56
2023/08/21 09:28:54;;;;;;;6.70;4.68;;;39.00;42.60;;;40.14;27.53;95300.25;5073347;28;20707;-59
2023/08/21 09:31:25;;;;;;;17.73;5.53;;;39.10;42.70;;;40.31;27.02;95305.81;5075416;28;20211;-57
2023/08/21 09:34:00;;;;;;;9.85;4.85;;;39.30;42.30;;;40.53;27.30;95306.06;5070382;28;20481;-56
2023/08/21 09:36:28;;;;;;;10.75;5.38;;;39.40;42.10;;;40.77;26.88;95294.59;5075482;28;20231;-56
2023/08/21 09:38:55;;;;;;;6.32;5.60;;;39.70;41.40;;;40.94;26.94;95294.63;5070716;28;20227;-57
2023/08/21 09:41:23;;;;;;;9.43;4.70;;;39.90;41.50;;;41.06;26.80;95296.75;5072040;28;20210;-60
2023/08/21 09:43:52;;;;;;;9.40;5.57;;;40.00;41.20;;;41.21;25.61;95298.16;5074700;28;20727;-60
2023/08/21 09:46:25;;;;;;;6.50;5.13;;;40.20;40.90;;;41.31;25.69;95292.34;5071124;28;20238;-57
2023/08/21 09:48:53;;;;;;;6.47;4.70;;;40.30;40.50;;;41.36;25.96;95286.66;5078471;28;20288;-58
2023/08/21 09:51:20;;;;;;;7.78;4.55;;;40.40;40.20;;;41.38;25.95;95284.41;5073088;28;20341;-59
2023/08/21 09:53:48;;;;;;;9.15;5.32;;;40.40;40.00;;;41.23;25.69;95282.13;5072078;28;20237;-59
2023/08/21 09:56:15;;;;;;;10.80;4.80;;;40.30;39.90;;;41.03;25.84;95284.38;5069628;28;20284;-56
2023/08/21 09:58:42;;;;;;;6.90;4.43;;;40.10;39.80;;;40.90;25.46;95268.78;5074203;28;20752;-59
2023/08/21 10:01:13;;;;;;;5.53;4.63;;;40.10;39.80;;;40.94;25.56;95269.78;5070893;28;20207;-60
2023/08/21 10:03:41;;;;;;;24.42;5.10;;;39.90;39.70;;;40.90;25.84;95265.25;5074165;28;20226;-56
2023/08/21 10:06:10;;;;;;;30.58;5.75;;;39.90;39.30;;;40.82;25.08;95266.84;5080176;28;20291;-59
2023/08/21 10:08:40;;;;;;;6.90;4.68;;;39.90;39.60;;;40.76;25.67;95262.59;5069513;28;20281;-58
2023/08/21 10:11:09;;;;;;;5.38;4.88;;;39.80;39.30;;;40.73;25.12;95260.50;5075515;28;20234;-60
2023/08/21 10:13:38;;;;;;;20.33;4.85;;;39.70;39.40;;;40.61;25.00;95261.97;5070485;28;20242;-60
2023/08/21 10:16:06;;;;;;;6.60;4.57;;;39.70;39.20;;;40.52;25.53;95252.88;5072369;28;20227;-56
2023/08/21 10:18:37;;;;;;;5.93;4.20;;;39.60;39.00;;;40.29;24.83;95252.13;5074680;28;20703;-56